createdAt,value
2018-01-26T00:00:09.568Z,1.63
2018-01-26T00:01:11.576Z,1.57
2018-01-26T00:02:12.839Z,1.57
2018-01-26T00:03:14.109Z,1.33
2018-01-26T00:04:16.385Z,1.33
2018-01-26T00:05:17.628Z,1.30
2018-01-26T00:06:18.892Z,1.33
2018-01-26T00:07:20.147Z,1.30
2018-01-26T00:08:21.400Z,1.43
2018-01-26T00:09:23.425Z,1.23
2018-01-26T00:10:24.664Z,1.40
2018-01-26T00:11:25.910Z,1.40
2018-01-26T00:12:27.160Z,1.40
2018-01-26T00:13:29.141Z,1.10
2018-01-26T00:14:37.276Z,1.50
2018-01-26T00:15:38.524Z,1.37
2018-01-26T00:16:39.771Z,1.20
2018-01-26T00:17:41.744Z,1.30
2018-01-26T00:18:43.006Z,1.23
2018-01-26T00:19:44.596Z,1.37
2018-01-26T00:20:45.844Z,1.40
2018-01-26T00:21:47.828Z,1.40
2018-01-26T00:22:49.089Z,1.20
2018-01-26T00:23:50.350Z,1.50
2018-01-26T00:24:51.876Z,1.30
2018-01-26T00:25:53.119Z,1.33
2018-01-26T00:26:54.372Z,1.40
2018-01-26T00:27:55.624Z,1.13
2018-01-26T00:28:57.608Z,1.30
2018-01-26T00:29:58.864Z,1.40
2018-01-26T00:31:00.866Z,1.40
2018-01-26T00:32:02.863Z,1.47
2018-01-26T00:33:04.108Z,1.40
2018-01-26T00:34:05.380Z,1.20
2018-01-26T00:35:07.656Z,1.40
2018-01-26T00:36:08.900Z,1.10
2018-01-26T00:37:10.144Z,1.10
2018-01-26T00:38:11.388Z,1.20
2018-01-26T00:39:12.648Z,1.20
2018-01-26T00:40:13.908Z,1.20
2018-01-26T00:41:15.160Z,1.20
2018-01-26T00:42:17.144Z,1.17
2018-01-26T00:43:18.392Z,1.30
2018-01-26T00:44:19.637Z,1.40
2018-01-26T00:45:21.218Z,1.20
2018-01-26T00:46:23.208Z,1.30
2018-01-26T00:47:24.444Z,1.20
2018-01-26T00:48:25.700Z,1.17
2018-01-26T00:49:26.968Z,1.20
2018-01-26T00:50:28.225Z,1.27
2018-01-26T00:51:29.492Z,1.20
2018-01-26T00:52:30.737Z,1.33
2018-01-26T00:53:31.976Z,1.17
2018-01-26T00:54:33.221Z,1.10
2018-01-26T00:55:34.484Z,1.20
2018-01-26T00:56:36.462Z,1.20
2018-01-26T00:57:37.728Z,1.20
2018-01-26T00:58:38.979Z,1.37
2018-01-26T00:59:40.236Z,1.10
2018-01-26T01:00:41.784Z,1.30
2018-01-26T01:01:43.772Z,1.30
2018-01-26T01:02:45.038Z,1.23
2018-01-26T01:03:46.324Z,1.10
2018-01-26T01:04:48.312Z,1.40
2018-01-26T01:05:49.893Z,1.30
2018-01-26T01:06:51.148Z,1.30
2018-01-26T01:07:53.152Z,1.37
2018-01-26T01:08:54.394Z,1.30
2018-01-26T01:09:56.413Z,1.10
2018-01-26T01:10:57.946Z,1.20
2018-01-26T01:11:59.192Z,1.20
2018-01-26T01:13:00.436Z,1.10
2018-01-26T01:14:01.696Z,1.20
2018-01-26T01:15:02.976Z,1.30
2018-01-26T01:16:05.332Z,1.20
2018-01-26T01:17:07.312Z,1.03
2018-01-26T01:18:08.556Z,1.30
2018-01-26T01:19:09.816Z,1.20
2018-01-26T01:20:11.064Z,1.30
2018-01-26T01:21:12.590Z,1.13
2018-01-26T01:22:13.840Z,1.37
2018-01-26T01:23:15.106Z,1.20
2018-01-26T01:24:17.088Z,1.10
2018-01-26T01:25:18.336Z,1.10
2018-01-26T01:26:19.894Z,1.00
2018-01-26T01:27:21.141Z,1.20
2018-01-26T01:28:22.387Z,1.40
2018-01-26T01:29:23.640Z,1.23
2018-01-26T01:30:25.636Z,1.30
2018-01-26T01:31:27.160Z,1.17
2018-01-26T01:32:28.412Z,1.47
2018-01-26T01:33:29.665Z,1.43
2018-01-26T01:34:30.948Z,1.50
2018-01-26T01:35:32.937Z,1.20
2018-01-26T01:36:34.189Z,1.37
2018-01-26T01:37:35.446Z,1.40
2018-01-26T01:38:36.697Z,1.63
2018-01-26T01:39:38.676Z,1.40
2018-01-26T01:40:39.921Z,1.13
2018-01-26T01:41:41.434Z,1.30
2018-01-26T01:42:43.434Z,1.30
2018-01-26T01:43:44.678Z,1.20
2018-01-26T01:44:45.924Z,1.30
2018-01-26T01:45:47.172Z,0.93
2018-01-26T01:46:48.692Z,1.23
2018-01-26T01:47:49.944Z,1.20
2018-01-26T01:49:03.448Z,1.23
2018-01-26T01:50:04.693Z,1.20
2018-01-26T01:51:05.960Z,1.07
2018-01-26T01:52:07.980Z,1.27
2018-01-26T01:53:09.236Z,1.20
2018-01-26T01:54:10.480Z,1.30
2018-01-26T01:55:12.488Z,1.17
2018-01-26T01:56:13.741Z,1.30
2018-01-26T01:57:15.023Z,1.17
2018-01-26T01:58:16.280Z,1.17
2018-01-26T01:59:17.536Z,1.20
2018-01-26T02:00:19.544Z,1.23
2018-01-26T02:01:20.808Z,1.20
2018-01-26T02:02:22.092Z,1.20
2018-01-26T02:03:23.342Z,1.20
2018-01-26T02:04:25.321Z,1.40
2018-01-26T02:05:26.556Z,1.10
2018-01-26T02:06:27.813Z,1.20
2018-01-26T02:07:29.390Z,1.30
2018-01-26T02:08:30.646Z,1.10
2018-01-26T02:09:32.648Z,1.00
2018-01-26T02:10:33.894Z,1.00
2018-01-26T02:11:35.148Z,1.00
2018-01-26T02:12:36.694Z,1.10
2018-01-26T02:13:37.929Z,1.20
2018-01-26T02:14:39.173Z,1.17
2018-01-26T02:15:41.177Z,1.10
2018-01-26T02:16:42.421Z,0.90
2018-01-26T02:17:43.994Z,1.10
2018-01-26T02:18:45.261Z,1.10
2018-01-26T02:19:46.509Z,1.20
2018-01-26T02:20:47.753Z,1.00
2018-01-26T02:21:49.027Z,1.30
2018-01-26T02:22:50.303Z,1.20
2018-01-26T02:23:51.544Z,1.30
2018-01-26T02:24:52.812Z,1.33
2018-01-26T02:25:54.069Z,1.20
2018-01-26T02:26:55.313Z,1.20
2018-01-26T02:27:56.836Z,1.10
2018-01-26T02:28:58.069Z,1.30
2018-01-26T02:29:59.320Z,1.30
2018-01-26T02:31:00.572Z,1.20
2018-01-26T02:32:02.565Z,1.20
2018-01-26T02:33:04.117Z,1.17
2018-01-26T02:34:05.365Z,1.30
2018-01-26T02:35:06.659Z,1.10
2018-01-26T02:36:07.911Z,1.10
2018-01-26T02:37:09.170Z,1.30
2018-01-26T02:38:10.432Z,1.37
2018-01-26T02:39:11.690Z,1.37
2018-01-26T02:40:12.944Z,1.50
2018-01-26T02:41:14.194Z,1.40
2018-01-26T02:42:15.449Z,1.40
2018-01-26T02:43:16.713Z,1.30
2018-01-26T02:44:18.744Z,1.37
2018-01-26T02:45:20.003Z,1.20
2018-01-26T02:46:21.995Z,1.40
2018-01-26T02:47:24.033Z,1.10
2018-01-26T02:48:25.648Z,1.57
2018-01-26T02:49:26.889Z,1.23
2018-01-26T02:50:28.877Z,1.50
2018-01-26T02:51:30.127Z,1.30
2018-01-26T02:52:31.367Z,1.40
2018-01-26T02:53:32.952Z,1.33
2018-01-26T02:54:34.217Z,1.40
2018-01-26T02:55:35.471Z,1.20
2018-01-26T02:56:36.732Z,1.50
2018-01-26T02:57:37.989Z,1.20
2018-01-26T02:58:39.527Z,1.20
2018-01-26T02:59:40.777Z,1.00
2018-01-26T03:00:42.788Z,1.30
2018-01-26T03:01:44.044Z,1.30
2018-01-26T03:02:45.290Z,1.30
2018-01-26T03:03:46.833Z,1.30
2018-01-26T03:04:55.309Z,1.40
2018-01-26T03:05:56.556Z,1.10
2018-01-26T03:06:57.807Z,1.20
2018-01-26T03:07:59.079Z,1.33
2018-01-26T03:09:00.591Z,1.10
2018-01-26T03:10:02.633Z,1.20
2018-01-26T03:11:03.892Z,1.20
2018-01-26T03:12:05.899Z,1.20
2018-01-26T03:13:07.146Z,1.20
2018-01-26T03:14:08.710Z,1.23
2018-01-26T03:15:10.705Z,1.20
2018-01-26T03:16:11.942Z,1.33
2018-01-26T03:17:13.195Z,1.37
2018-01-26T03:18:14.441Z,1.30
2018-01-26T03:19:15.960Z,1.50
2018-01-26T03:20:17.195Z,1.40
2018-01-26T03:21:18.453Z,1.57
2018-01-26T03:22:19.692Z,1.30
2018-01-26T03:23:20.959Z,1.40
2018-01-26T03:24:23.226Z,1.50
2018-01-26T03:25:25.223Z,1.67
2018-01-26T03:26:27.207Z,1.30
2018-01-26T03:27:35.308Z,1.50
2018-01-26T03:28:36.588Z,1.50
2018-01-26T03:29:38.251Z,1.40
2018-01-26T03:30:39.505Z,1.30
2018-01-26T03:31:40.771Z,1.50
2018-01-26T03:32:42.757Z,1.50
2018-01-26T03:33:44.085Z,1.30
2018-01-26T03:34:45.614Z,1.30
2018-01-26T03:35:47.650Z,1.27
2018-01-26T03:36:49.635Z,1.40
2018-01-26T03:37:50.882Z,1.67
2018-01-26T03:38:52.129Z,1.40
2018-01-26T03:39:53.395Z,1.37
2018-01-26T03:40:54.631Z,1.20
2018-01-26T03:41:55.867Z,1.40
2018-01-26T03:42:57.133Z,1.20
2018-01-26T03:43:59.117Z,1.30
2018-01-26T03:45:00.652Z,1.20
2018-01-26T03:46:01.896Z,1.50
2018-01-26T03:47:03.141Z,1.30
2018-01-26T03:48:04.379Z,1.40
2018-01-26T03:49:05.623Z,1.20
2018-01-26T03:50:07.147Z,1.30
2018-01-26T03:51:08.398Z,1.40
2018-01-26T03:52:09.635Z,1.20
2018-01-26T03:53:12.702Z,1.40
2018-01-26T03:54:13.955Z,1.10
2018-01-26T03:55:15.509Z,1.20
2018-01-26T03:56:16.763Z,1.30
2018-01-26T03:57:18.787Z,0.90
2018-01-26T03:58:20.037Z,1.20
2018-01-26T03:59:21.279Z,1.13
2018-01-26T04:00:23.545Z,1.10
2018-01-26T04:01:25.534Z,1.27
2018-01-26T04:02:26.791Z,1.20
2018-01-26T04:03:28.031Z,1.30
2018-01-26T04:04:29.291Z,1.50
2018-01-26T04:05:30.929Z,1.40
2018-01-26T04:06:32.176Z,1.40
2018-01-26T04:07:34.159Z,1.43
2018-01-26T04:08:35.409Z,1.20
2018-01-26T04:09:36.654Z,1.57
2018-01-26T04:10:38.952Z,1.40
2018-01-26T04:11:40.191Z,1.50
2018-01-26T04:12:42.193Z,1.60
2018-01-26T04:13:43.485Z,1.50
2018-01-26T04:14:44.721Z,1.70
2018-01-26T04:15:47.080Z,1.60
2018-01-26T04:16:49.067Z,1.97
2018-01-26T04:17:50.309Z,1.60
2018-01-26T04:18:51.548Z,1.50
2018-01-26T04:19:52.783Z,1.60
2018-01-26T04:20:54.333Z,1.43
2018-01-26T04:21:55.585Z,1.37
2018-01-26T04:22:56.829Z,1.20
2018-01-26T04:23:58.075Z,1.30
2018-01-26T04:24:59.315Z,1.60
2018-01-26T04:26:00.843Z,1.30
2018-01-26T04:27:02.095Z,1.40
2018-01-26T04:28:04.085Z,1.30
2018-01-26T04:29:05.339Z,1.30
2018-01-26T04:30:07.365Z,1.30
2018-01-26T04:31:09.115Z,1.30
2018-01-26T04:32:10.423Z,1.30
2018-01-26T04:33:13.553Z,1.10
2018-01-26T04:34:14.819Z,1.60
2018-01-26T04:35:16.239Z,1.50
2018-01-26T04:36:17.783Z,1.33
2018-01-26T04:37:19.021Z,1.40
2018-01-26T04:38:20.269Z,1.40
2018-01-26T04:39:21.515Z,1.20
2018-01-26T04:40:22.751Z,1.40
2018-01-26T04:41:24.357Z,1.33
2018-01-26T04:42:25.603Z,1.20
2018-01-26T04:43:26.865Z,1.10
2018-01-26T04:44:28.123Z,1.20
2018-01-26T04:45:30.127Z,1.10
2018-01-26T04:46:31.700Z,1.17
2018-01-26T04:47:32.967Z,1.40
2018-01-26T04:48:34.213Z,1.20
2018-01-26T04:49:35.475Z,1.30
2018-01-26T04:50:36.719Z,1.20
2018-01-26T04:51:37.979Z,1.20
2018-01-26T04:52:39.229Z,1.30
2018-01-26T04:53:41.233Z,1.30
2018-01-26T04:54:42.485Z,1.20
2018-01-26T04:55:43.734Z,1.20
2018-01-26T04:56:45.007Z,1.30
2018-01-26T04:57:46.249Z,1.30
2018-01-26T04:58:47.492Z,1.20
2018-01-26T04:59:48.741Z,1.40
2018-01-26T05:00:49.987Z,1.10
2018-01-26T05:01:51.507Z,1.30
2018-01-26T05:02:52.787Z,1.30
2018-01-26T05:03:54.027Z,1.30
2018-01-26T05:04:55.277Z,1.20
2018-01-26T05:05:57.258Z,1.30
2018-01-26T05:06:58.843Z,1.20
2018-01-26T05:08:00.084Z,1.10
2018-01-26T05:09:01.333Z,1.20
2018-01-26T05:10:03.332Z,1.50
2018-01-26T05:11:04.586Z,1.20
2018-01-26T05:12:05.851Z,1.20
2018-01-26T05:13:07.119Z,1.40
2018-01-26T05:14:08.381Z,1.47
2018-01-26T05:15:09.631Z,1.20
2018-01-26T05:16:10.872Z,1.30
2018-01-26T05:17:12.425Z,1.30
2018-01-26T05:18:13.679Z,1.30
2018-01-26T05:19:15.655Z,1.50
2018-01-26T05:20:16.899Z,1.40
2018-01-26T05:21:18.159Z,1.30
2018-01-26T05:22:19.689Z,1.40
2018-01-26T05:23:20.943Z,1.20
2018-01-26T05:24:22.200Z,1.37
2018-01-26T05:25:23.451Z,1.20
2018-01-26T05:26:25.443Z,1.27
2018-01-26T05:27:26.977Z,1.70
2018-01-26T05:28:28.971Z,1.30
2018-01-26T05:29:30.217Z,1.47
2018-01-26T05:30:31.465Z,1.50
2018-01-26T05:31:33.453Z,1.30
2018-01-26T05:32:34.983Z,1.50
2018-01-26T05:33:36.319Z,1.50
2018-01-26T05:34:37.563Z,1.40
2018-01-26T05:35:38.819Z,1.20
2018-01-26T05:36:40.136Z,1.50
2018-01-26T05:37:41.679Z,1.30
2018-01-26T05:38:42.955Z,1.40
2018-01-26T05:39:44.217Z,1.27
2018-01-26T05:40:46.294Z,1.30
2018-01-26T05:41:47.565Z,1.27
2018-01-26T05:42:49.114Z,1.47
2018-01-26T05:43:50.387Z,1.40
2018-01-26T05:44:52.383Z,1.30
2018-01-26T05:45:53.645Z,1.50
2018-01-26T05:46:54.905Z,1.60
2018-01-26T05:47:57.163Z,1.13
2018-01-26T05:48:58.425Z,1.70
2018-01-26T05:49:59.679Z,1.20
2018-01-26T05:51:00.915Z,2.37
2018-01-26T05:52:02.162Z,2.20
2018-01-26T05:53:03.423Z,2.53
2018-01-26T05:54:04.675Z,2.10
2018-01-26T05:55:05.913Z,2.00
2018-01-26T05:56:07.891Z,1.97
2018-01-26T05:57:09.134Z,1.37
2018-01-26T05:58:10.408Z,1.50
2018-01-26T05:59:11.674Z,1.40
2018-01-26T06:00:13.693Z,1.30
2018-01-26T06:01:14.941Z,1.20
2018-01-26T06:02:16.201Z,1.40
2018-01-26T06:03:18.199Z,1.10
2018-01-26T06:04:19.458Z,1.07
2018-01-26T06:05:20.699Z,1.20
2018-01-26T06:06:21.941Z,1.20
2018-01-26T06:07:23.194Z,1.30
2018-01-26T06:08:25.447Z,1.40
2018-01-26T06:09:27.437Z,1.30
2018-01-26T06:10:28.699Z,1.40
2018-01-26T06:11:29.971Z,1.20
2018-01-26T06:12:31.967Z,1.30
2018-01-26T06:13:33.495Z,1.63
2018-01-26T06:14:34.739Z,1.57
2018-01-26T06:15:36.007Z,1.33
2018-01-26T06:16:37.251Z,1.40
2018-01-26T06:17:38.541Z,1.47
2018-01-26T06:18:39.814Z,1.50
2018-01-26T06:19:41.063Z,1.30
2018-01-26T06:20:42.313Z,1.50
2018-01-26T06:21:44.328Z,1.77
2018-01-26T06:22:45.587Z,1.30
2018-01-26T06:23:47.127Z,1.70
2018-01-26T06:24:48.415Z,1.73
2018-01-26T06:25:49.693Z,1.50
2018-01-26T06:26:50.943Z,1.70
2018-01-26T06:27:52.219Z,1.60
2018-01-26T06:28:53.519Z,1.90
2018-01-26T06:29:54.799Z,1.70
2018-01-26T06:30:56.077Z,1.80
2018-01-26T06:31:58.051Z,1.80
2018-01-26T06:33:00.041Z,1.57
2018-01-26T06:34:01.307Z,1.57
2018-01-26T06:35:02.579Z,1.70
2018-01-26T06:36:04.559Z,1.50
2018-01-26T06:37:05.861Z,1.40
2018-01-26T06:38:07.845Z,1.50
2018-01-26T06:39:09.363Z,1.60
2018-01-26T06:40:11.343Z,1.60
2018-01-26T06:41:12.613Z,1.80
2018-01-26T06:42:13.863Z,1.60
2018-01-26T06:43:15.121Z,1.50
2018-01-26T06:44:17.394Z,1.60
2018-01-26T06:45:18.647Z,1.30
2018-01-26T06:46:19.899Z,1.43
2018-01-26T06:47:21.147Z,1.40
2018-01-26T06:48:22.407Z,1.60
2018-01-26T06:49:23.710Z,1.70
2018-01-26T06:50:24.945Z,1.80
2018-01-26T06:51:26.187Z,1.50
2018-01-26T06:52:27.451Z,1.90
2018-01-26T06:53:28.687Z,1.87
2018-01-26T06:54:30.693Z,2.10
2018-01-26T06:55:31.945Z,2.00
2018-01-26T06:56:33.203Z,2.23
2018-01-26T06:57:34.447Z,2.50
2018-01-26T06:58:35.707Z,2.70
2018-01-26T06:59:37.267Z,2.43
2018-01-26T07:00:38.539Z,2.10
2018-01-26T07:01:39.791Z,1.97
2018-01-26T07:02:41.045Z,1.93
2018-01-26T07:03:43.057Z,1.90
2018-01-26T07:04:44.636Z,1.90
2018-01-26T07:05:46.627Z,1.60
2018-01-26T07:06:47.881Z,1.80
2018-01-26T07:07:49.139Z,1.80
2018-01-26T07:08:50.405Z,2.03
2018-01-26T07:09:52.397Z,1.90
2018-01-26T07:10:53.649Z,1.83
2018-01-26T07:11:54.893Z,1.77
2018-01-26T07:12:56.157Z,1.67
2018-01-26T07:13:58.167Z,1.57
2018-01-26T07:14:59.433Z,1.60
2018-01-26T07:16:00.707Z,1.70
2018-01-26T07:17:01.951Z,1.77
2018-01-26T07:18:03.203Z,1.80
2018-01-26T07:19:04.447Z,1.50
2018-01-26T07:20:05.733Z,1.43
2018-01-26T07:21:14.671Z,1.40
2018-01-26T07:22:15.917Z,1.47
2018-01-26T07:23:17.163Z,1.50
2018-01-26T07:24:18.427Z,1.40
2018-01-26T07:25:19.691Z,1.30
2018-01-26T07:26:21.669Z,1.43
2018-01-26T07:27:22.903Z,1.33
2018-01-26T07:28:24.143Z,1.43
2018-01-26T07:29:25.399Z,1.57
2018-01-26T07:30:26.667Z,1.60
2018-01-26T07:31:28.673Z,1.70
2018-01-26T07:32:30.010Z,1.50
2018-01-26T07:33:31.999Z,1.60
2018-01-26T07:34:33.251Z,1.40
2018-01-26T07:35:35.263Z,1.60
2018-01-26T07:36:36.527Z,1.83
2018-01-26T07:37:37.799Z,1.80
2018-01-26T07:38:39.055Z,2.00
2018-01-26T07:39:40.315Z,2.10
2018-01-26T07:40:41.601Z,2.00
2018-01-26T07:41:42.845Z,2.30
2018-01-26T07:42:44.095Z,2.83
2018-01-26T07:43:45.339Z,3.10
2018-01-26T07:44:46.579Z,3.00
2018-01-26T07:45:47.837Z,2.60
2018-01-26T07:46:49.120Z,2.33
2018-01-26T07:47:50.361Z,1.97
2018-01-26T07:48:51.616Z,1.77
2018-01-26T07:49:52.909Z,1.80
2018-01-26T07:50:54.923Z,1.70
2018-01-26T07:51:56.173Z,1.70
2018-01-26T07:52:57.429Z,1.40
2018-01-26T07:53:59.415Z,1.60
2018-01-26T07:55:00.681Z,1.43
2018-01-26T07:56:01.949Z,1.57
2018-01-26T07:57:03.934Z,1.50
2018-01-26T07:58:05.183Z,1.60
2018-01-26T07:59:07.175Z,1.40
2018-01-26T08:00:08.441Z,1.37
2018-01-26T08:01:09.735Z,1.57
2018-01-26T08:02:10.989Z,1.53
2018-01-26T08:03:12.219Z,3.27
2018-01-26T08:04:13.464Z,5.80
2018-01-26T08:05:15.451Z,4.30
2018-01-26T08:06:16.744Z,2.80
2018-01-26T08:07:17.989Z,1.83
2018-01-26T08:08:19.999Z,1.53
2018-01-26T08:09:21.418Z,1.40
2018-01-26T08:10:22.696Z,1.63
2018-01-26T08:11:24.741Z,1.53
2018-01-26T08:12:25.984Z,1.33
2018-01-26T08:13:27.228Z,1.50
2018-01-26T08:14:28.471Z,1.40
2018-01-26T08:15:30.455Z,1.50
2018-01-26T08:16:31.737Z,1.50
2018-01-26T08:17:34.447Z,1.70
2018-01-26T08:18:36.435Z,1.60
2018-01-26T08:19:37.671Z,1.70
2018-01-26T08:20:38.927Z,1.80
2018-01-26T08:21:40.447Z,1.97
2018-01-26T08:22:41.687Z,2.97
2018-01-26T08:23:42.927Z,2.50
2018-01-26T08:24:44.173Z,2.50
2018-01-26T08:25:45.422Z,2.47
2018-01-26T08:26:46.684Z,2.00
2018-01-26T08:27:48.667Z,2.53
2018-01-26T08:28:49.911Z,2.20
2018-01-26T08:29:51.149Z,2.10
2018-01-26T08:30:52.432Z,1.90
2018-01-26T08:31:54.431Z,2.00
2018-01-26T08:32:55.679Z,1.70
2018-01-26T08:33:56.934Z,1.57
2018-01-26T08:34:58.209Z,1.80
2018-01-26T08:36:00.179Z,2.13
2018-01-26T08:37:01.431Z,2.12
2018-01-26T08:38:02.711Z,2.40
2018-01-26T08:39:04.711Z,4.22
2018-01-26T08:40:05.979Z,4.72
2018-01-26T08:41:07.233Z,5.15
2018-01-26T08:42:08.531Z,4.07
2018-01-26T08:43:09.784Z,5.12
2018-01-26T08:44:11.043Z,4.10
2018-01-26T08:45:13.027Z,2.60
2018-01-26T08:46:15.267Z,1.87
2018-01-26T08:47:17.541Z,1.60
2018-01-26T08:48:18.787Z,1.35
2018-01-26T08:49:20.031Z,1.30
2018-01-26T08:50:21.269Z,1.27
2018-01-26T08:51:22.515Z,1.37
2018-01-26T08:52:24.094Z,1.47
2018-01-26T08:53:25.343Z,1.20
2018-01-26T08:54:27.345Z,1.40
2018-01-26T08:55:28.619Z,1.20
2018-01-26T08:56:29.889Z,1.20
2018-01-26T08:57:31.151Z,1.20
2018-01-26T08:58:32.415Z,1.10
2018-01-26T08:59:33.659Z,1.20
2018-01-26T09:00:34.992Z,1.17
2018-01-26T09:01:36.203Z,1.20
2018-01-26T09:02:37.763Z,1.23
2018-01-26T09:03:39.027Z,1.17
2018-01-26T09:04:41.008Z,1.07
2018-01-26T09:05:42.250Z,1.00
2018-01-26T09:06:43.495Z,1.20
2018-01-26T09:07:45.067Z,1.40
2018-01-26T09:08:46.299Z,1.30
2018-01-26T09:09:47.563Z,1.10
2018-01-26T09:10:49.539Z,1.37
2018-01-26T09:11:50.779Z,1.15
2018-01-26T09:12:52.180Z,1.30
2018-01-26T09:13:54.168Z,1.20
2018-01-26T09:14:55.419Z,1.30
2018-01-26T09:15:56.708Z,1.35
2018-01-26T09:16:58.687Z,1.20
2018-01-26T09:17:59.960Z,1.20
2018-01-26T09:19:01.199Z,1.30
2018-01-26T09:20:02.453Z,1.10
2018-01-26T09:21:03.737Z,1.20
2018-01-26T09:22:04.983Z,1.10
2018-01-26T09:23:06.520Z,1.00
2018-01-26T09:24:07.767Z,1.00
2018-01-26T09:25:09.013Z,1.10
2018-01-26T09:26:10.266Z,1.00
2018-01-26T09:27:11.523Z,1.08
2018-01-26T09:28:13.859Z,1.00
2018-01-26T09:29:15.118Z,1.20
2018-01-26T09:30:17.124Z,1.03
2018-01-26T09:31:18.361Z,0.98
2018-01-26T09:32:20.343Z,0.90
2018-01-26T09:33:22.013Z,1.08
2018-01-26T09:34:23.992Z,1.10
2018-01-26T09:35:25.244Z,1.30
2018-01-26T09:36:26.487Z,1.02
2018-01-26T09:37:27.731Z,1.20
2018-01-26T09:38:29.383Z,1.25
2018-01-26T09:39:30.635Z,1.40
2018-01-26T09:40:32.623Z,1.40
2018-01-26T09:41:33.879Z,1.80
2018-01-26T09:42:35.119Z,1.83
2018-01-26T09:43:36.699Z,1.73
2018-01-26T09:44:38.735Z,1.92
2018-01-26T09:45:39.985Z,1.67
2018-01-26T09:46:41.232Z,1.42
2018-01-26T09:47:43.221Z,1.40
2018-01-26T09:48:44.479Z,1.40
2018-01-26T09:49:45.727Z,1.45
2018-01-26T09:50:46.971Z,1.20
2018-01-26T09:51:48.187Z,1.55
2018-01-26T09:52:49.422Z,2.20
2018-01-26T09:53:50.671Z,2.00
2018-01-26T09:54:51.911Z,1.83
2018-01-26T09:55:53.147Z,2.35
2018-01-26T09:56:54.387Z,2.95
2018-01-26T09:57:55.623Z,2.80
2018-01-26T09:58:56.880Z,2.58
2018-01-26T09:59:58.131Z,2.70
2018-01-26T10:00:59.402Z,2.72
2018-01-26T10:02:00.644Z,2.97
2018-01-26T10:03:01.879Z,3.12
2018-01-26T10:04:03.119Z,2.92
2018-01-26T10:05:04.355Z,2.85
2018-01-26T10:06:05.603Z,2.97
2018-01-26T10:07:06.827Z,3.20
2018-01-26T10:08:08.067Z,2.80
2018-01-26T10:09:09.611Z,3.20
2018-01-26T10:10:10.935Z,2.72
2018-01-26T10:11:12.167Z,3.00
2018-01-26T10:12:13.414Z,2.80
2018-01-26T10:13:14.656Z,2.60
2018-01-26T10:14:15.889Z,2.90
2018-01-26T10:15:17.123Z,2.95
2018-01-26T10:16:18.349Z,3.42
2018-01-26T10:17:19.594Z,2.93
2018-01-26T10:18:20.832Z,3.53
2018-01-26T10:19:23.114Z,3.47
2018-01-26T10:20:24.379Z,3.65
2018-01-26T10:21:25.616Z,3.22
2018-01-26T10:22:26.867Z,3.53
2018-01-26T10:23:28.115Z,3.80
2018-01-26T10:24:29.640Z,3.92
2018-01-26T10:25:30.884Z,3.80
2018-01-26T10:26:32.129Z,4.00
2018-01-26T10:27:34.107Z,3.80
2018-01-26T10:28:36.091Z,4.03
2018-01-26T10:29:37.340Z,3.85
2018-01-26T10:30:38.578Z,3.87
2018-01-26T10:31:39.814Z,3.83
2018-01-26T10:32:41.043Z,4.18
2018-01-26T10:33:42.291Z,3.90
2018-01-26T10:34:50.495Z,4.03
2018-01-26T10:35:52.471Z,3.87
2018-01-26T10:36:53.719Z,3.87
2018-01-26T10:37:55.711Z,4.28
2018-01-26T10:38:56.971Z,3.95
2018-01-26T10:39:58.233Z,4.12
2018-01-26T10:40:59.480Z,4.10
2018-01-26T10:42:01.459Z,3.53
2018-01-26T10:43:02.699Z,3.92
2018-01-26T10:44:03.936Z,4.28
2018-01-26T10:45:05.194Z,4.50
2018-01-26T10:46:07.174Z,4.28
2018-01-26T10:47:08.408Z,4.10
2018-01-26T10:48:09.647Z,4.73
2018-01-26T10:49:10.887Z,4.17
2018-01-26T10:50:12.155Z,4.50
2018-01-26T10:51:13.395Z,4.53
2018-01-26T10:52:14.627Z,4.20
2018-01-26T10:53:15.863Z,4.20
2018-01-26T10:54:17.111Z,4.20
2018-01-26T10:55:18.450Z,4.20
2018-01-26T10:56:19.667Z,4.55
2018-01-26T10:57:20.909Z,4.00
2018-01-26T10:58:22.147Z,4.93
2018-01-26T10:59:23.387Z,4.57
2018-01-26T11:00:24.660Z,4.70
2018-01-26T11:01:26.639Z,4.20
2018-01-26T11:02:28.595Z,4.50
2018-01-26T11:03:30.574Z,4.43
2018-01-26T11:04:31.803Z,4.60
2018-01-26T11:05:33.040Z,4.55
2018-01-26T11:06:34.288Z,4.27
2018-01-26T11:07:35.532Z,4.60
2018-01-26T11:08:36.760Z,3.97
2018-01-26T11:09:38.004Z,4.23
2018-01-26T11:10:39.587Z,4.50
2018-01-26T11:11:41.577Z,4.30
2018-01-26T11:12:42.814Z,4.40
2018-01-26T11:13:44.063Z,4.80
2018-01-26T11:14:45.308Z,4.13
2018-01-26T11:15:46.595Z,4.57
2018-01-26T11:16:48.563Z,4.43
2018-01-26T11:17:49.803Z,4.43
2018-01-26T11:18:51.036Z,4.07
2018-01-26T11:19:52.275Z,4.37
2018-01-26T11:20:53.871Z,4.00
2018-01-26T11:21:55.099Z,4.73
2018-01-26T11:22:56.339Z,4.33
2018-01-26T11:23:57.667Z,4.50
2018-01-26T11:24:58.895Z,4.30
2018-01-26T11:26:00.148Z,4.73
2018-01-26T11:27:01.391Z,4.27
2018-01-26T11:28:02.620Z,4.47
2018-01-26T11:29:03.857Z,4.53
2018-01-26T11:30:05.084Z,4.75
2018-01-26T11:31:06.331Z,4.62
2018-01-26T11:32:07.563Z,4.63
2018-01-26T11:33:08.807Z,5.10
2018-01-26T11:34:10.791Z,4.85
2018-01-26T11:35:12.027Z,4.90
2018-01-26T11:36:13.557Z,4.80
2018-01-26T11:37:14.798Z,5.20
2018-01-26T11:38:16.036Z,5.33
2018-01-26T11:39:17.287Z,5.68
2018-01-26T11:40:18.536Z,5.17
2018-01-26T11:41:19.785Z,5.70
2018-01-26T11:42:21.023Z,5.70
2018-01-26T11:43:22.271Z,6.17
2018-01-26T11:44:23.515Z,6.00
2018-01-26T11:45:25.505Z,6.20
2018-01-26T11:46:26.763Z,5.97
2018-01-26T11:47:28.011Z,6.10
2018-01-26T11:48:29.251Z,5.90
2018-01-26T11:49:30.518Z,6.20
2018-01-26T11:50:32.491Z,6.25
2018-01-26T11:51:50.347Z,6.55
2018-01-26T11:52:53.687Z,5.50
2018-01-26T11:53:56.422Z,5.87
2018-01-26T11:54:57.659Z,5.80
2018-01-26T11:55:58.891Z,6.23
2018-01-26T11:57:00.467Z,6.00
2018-01-26T11:58:02.464Z,5.95
2018-01-26T11:59:03.716Z,6.60
2018-01-26T12:00:04.975Z,5.90
2018-01-26T12:01:06.970Z,5.62
2018-01-26T12:02:08.488Z,5.75
2018-01-26T12:03:10.457Z,5.85
2018-01-26T12:04:11.724Z,6.18
2018-01-26T12:05:12.972Z,6.07
2018-01-26T12:06:14.196Z,6.28
2018-01-26T12:07:15.476Z,6.00
2018-01-26T12:08:17.449Z,5.37
2018-01-26T12:09:18.692Z,5.90
2018-01-26T12:10:19.944Z,5.90
2018-01-26T12:11:21.255Z,6.28
2018-01-26T12:12:22.767Z,8.02
2018-01-26T12:13:24.748Z,11.93
2018-01-26T12:14:25.967Z,12.40
2018-01-26T12:15:27.950Z,11.55
2018-01-26T12:16:29.192Z,10.82
2018-01-26T12:17:30.712Z,9.73
2018-01-26T12:18:31.961Z,9.20
2018-01-26T12:19:33.221Z,8.03
2018-01-26T12:20:34.447Z,7.03
2018-01-26T12:21:35.683Z,6.45
2018-01-26T12:22:36.959Z,6.80
2018-01-26T12:23:38.931Z,6.20
2018-01-26T12:24:40.967Z,6.72
2018-01-26T12:25:42.986Z,6.03
2018-01-26T12:26:44.222Z,5.70
2018-01-26T12:27:52.780Z,5.87
2018-01-26T12:28:54.045Z,6.57
2018-01-26T12:29:55.312Z,5.90
2018-01-26T12:30:58.070Z,6.12
2018-01-26T12:31:59.336Z,6.40
2018-01-26T12:33:01.345Z,6.22
2018-01-26T12:34:02.634Z,6.07
2018-01-26T12:35:04.624Z,6.65
2018-01-26T12:36:05.877Z,6.43
2018-01-26T12:37:07.120Z,7.40
2018-01-26T12:38:08.404Z,7.28
2018-01-26T12:39:09.655Z,6.60
2018-01-26T12:40:10.896Z,6.65
2018-01-26T12:41:12.160Z,7.00
2018-01-26T12:42:13.427Z,6.30
2018-01-26T12:43:15.706Z,6.77
2018-01-26T12:44:16.940Z,6.70
2018-01-26T12:45:18.191Z,6.40
2018-01-26T12:46:19.470Z,6.45
2018-01-26T12:47:20.721Z,6.40
2018-01-26T12:48:21.984Z,6.30
2018-01-26T12:49:23.242Z,6.17
2018-01-26T12:50:24.480Z,6.10
2018-01-26T12:51:25.740Z,6.17
2018-01-26T12:52:27.723Z,5.80
2018-01-26T12:53:29.707Z,6.47
2018-01-26T12:54:30.951Z,5.73
2018-01-26T12:55:32.200Z,6.05
2018-01-26T12:56:33.454Z,6.25
2018-01-26T12:57:41.560Z,6.10
2018-01-26T12:58:42.823Z,5.72
2018-01-26T12:59:44.796Z,6.40
2018-01-26T13:00:46.063Z,5.25
2018-01-26T13:01:47.297Z,5.97
2018-01-26T13:02:48.541Z,5.93
2018-01-26T13:03:50.824Z,5.90
2018-01-26T13:04:52.076Z,5.93
2018-01-26T13:05:54.076Z,6.13
2018-01-26T13:06:56.056Z,5.72
2018-01-26T13:07:57.303Z,5.70
2018-01-26T13:08:59.560Z,5.87
2018-01-26T13:10:00.808Z,6.15
2018-01-26T13:11:02.794Z,6.33
2018-01-26T13:12:04.080Z,5.82
2018-01-26T13:13:05.324Z,6.23
2018-01-26T13:14:07.575Z,5.60
2018-01-26T13:15:08.814Z,6.37
2018-01-26T13:16:10.047Z,5.77
2018-01-26T13:17:11.284Z,6.50
2018-01-26T13:18:12.503Z,6.03
2018-01-26T13:19:13.755Z,6.13
2018-01-26T13:20:14.988Z,6.80
2018-01-26T13:21:16.223Z,6.63
2018-01-26T13:22:17.485Z,7.03
2018-01-26T13:23:18.731Z,6.33
2018-01-26T13:24:19.979Z,6.90
2018-01-26T13:25:21.216Z,7.03
2018-01-26T13:26:22.519Z,6.47
2018-01-26T13:27:24.560Z,6.83
2018-01-26T13:28:26.554Z,7.17
2018-01-26T13:29:27.796Z,7.20
2018-01-26T13:30:29.052Z,7.07
2018-01-26T13:31:30.312Z,7.27
2018-01-26T13:32:31.547Z,7.10
2018-01-26T13:33:32.784Z,7.17
2018-01-26T13:34:34.034Z,6.90
2018-01-26T13:35:36.031Z,6.90
2018-01-26T13:36:37.286Z,6.90
2018-01-26T13:37:39.264Z,7.60
2018-01-26T13:38:41.255Z,6.97